createdAt,value
2019-01-25T00:00:09.023Z,99.90
2019-01-25T00:02:37.571Z,99.90
2019-01-25T00:05:07.242Z,99.90
2019-01-25T00:07:35.880Z,99.90
2019-01-25T00:10:09.351Z,99.90
2019-01-25T00:12:38.063Z,99.90
2019-01-25T00:15:09.410Z,99.90
2019-01-25T00:17:38.041Z,99.90
2019-01-25T00:20:11.544Z,99.90
2019-01-25T00:22:40.245Z,99.90
2019-01-25T00:25:09.831Z,99.90
2019-01-25T00:27:38.379Z,99.90
2019-01-25T00:30:10.010Z,99.90
2019-01-25T00:32:38.632Z,99.90
2019-01-25T00:35:07.730Z,99.90
2019-01-25T00:37:36.342Z,99.90
2019-01-25T00:40:08.000Z,99.90
2019-01-25T00:42:36.609Z,99.90
2019-01-25T00:45:07.906Z,99.90
2019-01-25T00:47:36.531Z,99.90
2019-01-25T00:50:14.183Z,99.90
2019-01-25T00:52:42.867Z,99.90
2019-01-25T00:55:11.647Z,99.90
2019-01-25T00:57:40.215Z,99.90
2019-01-25T01:00:12.219Z,99.90
2019-01-25T01:02:40.842Z,99.90
2019-01-25T01:05:09.834Z,99.90
2019-01-25T01:07:38.611Z,99.90
2019-01-25T01:10:13.958Z,99.90
2019-01-25T01:12:40.435Z,99.90
2019-01-25T01:15:12.430Z,99.90
2019-01-25T01:17:41.118Z,99.90
2019-01-25T01:20:12.674Z,99.90
2019-01-25T01:22:41.354Z,99.90
2019-01-25T01:25:10.760Z,99.90
2019-01-25T01:27:39.539Z,99.90
2019-01-25T01:30:13.833Z,99.90
2019-01-25T01:32:42.533Z,99.90
2019-01-25T01:35:11.229Z,99.90
2019-01-25T01:37:39.903Z,99.90
2019-01-25T01:40:21.501Z,99.90
2019-01-25T01:42:44.866Z,99.90
2019-01-25T01:45:13.759Z,99.90
2019-01-25T01:47:42.300Z,99.90
2019-01-25T01:50:13.306Z,99.90
2019-01-25T01:52:43.462Z,99.90
2019-01-25T01:55:12.158Z,99.90
2019-01-25T01:57:40.787Z,99.90
2019-01-25T02:00:18.418Z,99.90
2019-01-25T02:02:47.066Z,99.90
2019-01-25T02:05:16.349Z,99.90
2019-01-25T02:07:45.248Z,99.90
2019-01-25T02:10:16.923Z,99.90
2019-01-25T02:12:45.556Z,99.90
2019-01-25T02:15:16.454Z,99.90
2019-01-25T02:17:45.351Z,99.90
2019-01-25T02:20:17.155Z,99.90
2019-01-25T02:22:45.830Z,99.90
2019-01-25T02:25:14.941Z,99.90
2019-01-25T02:27:43.728Z,99.90
2019-01-25T02:30:15.390Z,99.90
2019-01-25T02:32:44.006Z,99.90
2019-01-25T02:35:12.710Z,99.90
2019-01-25T02:37:41.509Z,99.90
2019-01-25T02:40:13.487Z,99.90
2019-01-25T02:42:42.163Z,99.90
2019-01-25T02:45:12.840Z,99.90
2019-01-25T02:47:41.540Z,99.90
2019-01-25T02:50:18.443Z,99.90
2019-01-25T02:52:47.139Z,99.90
2019-01-25T02:55:16.725Z,99.90
2019-01-25T02:57:45.429Z,99.90
2019-01-25T03:00:20.106Z,99.90
2019-01-25T03:02:49.113Z,99.90
2019-01-25T03:05:19.384Z,99.90
2019-01-25T03:07:48.387Z,99.90
2019-01-25T03:10:18.263Z,99.90
2019-01-25T03:12:46.879Z,99.90
2019-01-25T03:15:18.188Z,99.90
2019-01-25T03:17:46.794Z,99.90
2019-01-25T03:20:16.902Z,99.90
2019-01-25T03:22:45.510Z,99.90
2019-01-25T03:25:17.320Z,99.90
2019-01-25T03:27:45.847Z,99.90
2019-01-25T03:30:17.552Z,99.90
2019-01-25T03:32:46.167Z,99.90
2019-01-25T03:35:16.867Z,99.90
2019-01-25T03:37:45.583Z,99.90
2019-01-25T03:40:19.627Z,99.90
2019-01-25T03:42:48.332Z,99.90
2019-01-25T03:45:17.607Z,99.90
2019-01-25T03:47:46.307Z,99.90
2019-01-25T03:50:17.928Z,99.90
2019-01-25T03:52:46.491Z,99.90
2019-01-25T03:55:15.783Z,99.90
2019-01-25T03:57:44.487Z,99.90
2019-01-25T04:00:16.044Z,99.90
2019-01-25T04:02:44.756Z,99.90
2019-01-25T04:05:15.441Z,99.90
2019-01-25T04:07:44.057Z,99.90
2019-01-25T04:10:18.550Z,99.90
2019-01-25T04:12:47.232Z,99.90
2019-01-25T04:15:18.811Z,99.90
2019-01-25T04:17:47.417Z,99.90
2019-01-25T04:20:20.892Z,99.90
2019-01-25T04:22:49.568Z,99.90
2019-01-25T04:25:20.876Z,99.90
2019-01-25T04:27:50.052Z,99.90
2019-01-25T04:30:23.672Z,99.90
2019-01-25T04:32:52.352Z,99.90
2019-01-25T04:35:21.038Z,99.90
2019-01-25T04:37:49.745Z,99.90
2019-01-25T04:40:19.026Z,99.90
2019-01-25T04:42:47.666Z,99.90
2019-01-25T04:45:21.980Z,99.90
2019-01-25T04:47:50.960Z,99.90
2019-01-25T04:50:22.010Z,99.90
2019-01-25T04:52:51.317Z,99.90
2019-01-25T04:55:25.569Z,99.90
2019-01-25T04:57:54.127Z,99.90
2019-01-25T05:00:23.917Z,99.90
2019-01-25T05:02:54.800Z,99.90
2019-01-25T05:05:23.603Z,99.90
2019-01-25T05:07:56.864Z,99.90
2019-01-25T05:10:25.606Z,99.90
2019-01-25T05:12:54.416Z,99.90
2019-01-25T05:15:23.043Z,99.90
2019-01-25T05:17:55.507Z,99.90
2019-01-25T05:20:24.215Z,99.90
2019-01-25T05:22:57.464Z,99.90
2019-01-25T05:25:27.367Z,99.90
2019-01-25T05:27:56.150Z,99.90
2019-01-25T05:30:26.272Z,99.90
2019-01-25T05:32:54.858Z,99.90
2019-01-25T05:35:23.542Z,99.90
2019-01-25T05:37:52.110Z,99.90
2019-01-25T05:40:25.797Z,99.90
2019-01-25T05:42:54.494Z,99.90
2019-01-25T05:45:23.172Z,99.90
2019-01-25T05:47:51.811Z,99.90
2019-01-25T05:50:20.495Z,99.90
2019-01-25T05:52:49.167Z,99.90
2019-01-25T05:55:23.766Z,99.90
2019-01-25T05:57:57.021Z,99.90
2019-01-25T06:00:27.299Z,99.90
2019-01-25T06:02:55.975Z,99.90
2019-01-25T06:05:24.614Z,99.90
2019-01-25T06:07:53.231Z,99.90
2019-01-25T06:10:21.870Z,99.90
2019-01-25T06:12:55.027Z,99.90
2019-01-25T06:15:25.104Z,99.90
2019-01-25T06:17:56.819Z,99.90
2019-01-25T06:20:25.523Z,99.90
2019-01-25T06:22:55.668Z,99.90
2019-01-25T06:25:24.202Z,99.90
2019-01-25T06:27:52.763Z,99.90
2019-01-25T06:30:21.302Z,99.90
2019-01-25T06:32:49.941Z,99.90
2019-01-25T06:35:18.481Z,99.90
2019-01-25T06:37:47.111Z,99.90
2019-01-25T06:40:16.079Z,99.90
2019-01-25T06:42:44.723Z,99.90
2019-01-25T06:45:13.410Z,99.90
2019-01-25T06:47:41.947Z,99.90
2019-01-25T06:50:12.555Z,99.90
2019-01-25T06:52:41.167Z,99.90
2019-01-25T06:55:09.876Z,99.90
2019-01-25T06:57:42.906Z,99.90
2019-01-25T07:00:18.112Z,99.90
2019-01-25T07:02:46.720Z,99.90
2019-01-25T07:05:15.355Z,99.90
2019-01-25T07:07:45.378Z,99.90
2019-01-25T07:10:16.984Z,99.90
2019-01-25T07:12:45.583Z,99.90
2019-01-25T07:15:16.198Z,99.90
2019-01-25T07:17:44.905Z,99.90
2019-01-25T07:20:15.379Z,99.90
2019-01-25T07:22:43.951Z,99.90
2019-01-25T07:25:15.004Z,99.90
2019-01-25T07:27:43.634Z,99.90
2019-01-25T07:30:16.837Z,99.90
2019-01-25T07:32:45.384Z,99.90
2019-01-25T07:35:14.062Z,99.90
2019-01-25T07:37:42.632Z,99.90
2019-01-25T07:40:11.854Z,99.90
2019-01-25T07:42:40.411Z,99.90
2019-01-25T07:45:15.554Z,99.90
2019-01-25T07:47:44.214Z,99.90
2019-01-25T07:50:13.556Z,99.90
2019-01-25T07:52:42.155Z,99.90
2019-01-25T07:55:12.413Z,99.90
2019-01-25T07:57:41.275Z,99.90
2019-01-25T08:00:12.866Z,99.90
2019-01-25T08:02:41.364Z,99.90
2019-01-25T08:05:10.693Z,99.90
2019-01-25T08:07:39.643Z,99.90
2019-01-25T08:10:24.247Z,99.90
2019-01-25T08:12:52.853Z,99.90
2019-01-25T08:15:26.201Z,99.90
2019-01-25T08:17:54.915Z,99.90
2019-01-25T08:20:23.526Z,99.90
2019-01-25T08:22:52.234Z,99.90
2019-01-25T08:25:20.945Z,99.90
2019-01-25T08:27:49.485Z,99.90
2019-01-25T08:30:22.669Z,99.90
2019-01-25T08:32:51.635Z,99.90
2019-01-25T08:35:20.859Z,99.90
2019-01-25T08:37:49.501Z,99.90
2019-01-25T08:40:18.653Z,99.90
2019-01-25T08:42:47.534Z,99.90
2019-01-25T08:45:17.199Z,99.90
2019-01-25T08:47:45.854Z,99.90
2019-01-25T08:50:20.037Z,99.90
2019-01-25T08:52:48.720Z,99.90
2019-01-25T08:55:17.341Z,99.90
2019-01-25T08:57:46.025Z,99.90
2019-01-25T09:00:17.665Z,99.90
2019-01-25T09:02:46.348Z,99.90
2019-01-25T09:05:15.472Z,99.90
2019-01-25T09:07:44.034Z,99.90
2019-01-25T09:10:18.103Z,99.90
2019-01-25T09:12:46.726Z,99.90
2019-01-25T09:15:24.104Z,99.90
2019-01-25T09:17:52.817Z,99.90
2019-01-25T09:20:22.386Z,99.90
2019-01-25T09:22:51.099Z,99.90
2019-01-25T09:25:19.772Z,99.90
2019-01-25T09:27:48.716Z,99.90
2019-01-25T09:30:23.355Z,99.90
2019-01-25T09:32:51.982Z,99.90
2019-01-25T09:35:20.762Z,99.90
2019-01-25T09:37:50.051Z,99.90
2019-01-25T09:40:25.074Z,99.90
2019-01-25T09:42:53.683Z,99.90
2019-01-25T09:45:22.691Z,99.90
2019-01-25T09:47:51.371Z,99.90
2019-01-25T09:50:21.482Z,99.90
2019-01-25T09:52:50.158Z,99.90
2019-01-25T09:55:24.378Z,99.90
2019-01-25T09:57:56.155Z,99.90
2019-01-25T10:00:39.924Z,99.90
2019-01-25T10:03:08.507Z,99.90
2019-01-25T10:05:37.183Z,99.90
2019-01-25T10:08:06.815Z,99.90
2019-01-25T10:10:35.366Z,99.90
2019-01-25T10:13:04.063Z,99.90
2019-01-25T10:15:32.740Z,99.90
2019-01-25T10:18:01.308Z,99.90
2019-01-25T10:20:29.997Z,99.90
2019-01-25T10:22:58.559Z,99.90
2019-01-25T10:25:27.166Z,99.90
2019-01-25T10:27:55.707Z,99.90
2019-01-25T10:30:28.442Z,99.90
2019-01-25T10:32:57.058Z,99.90
2019-01-25T10:35:25.695Z,99.90
2019-01-25T10:37:54.382Z,99.90
2019-01-25T10:40:23.787Z,99.90
2019-01-25T10:42:53.713Z,99.90
2019-01-25T10:45:28.150Z,99.90
2019-01-25T10:47:56.772Z,99.90
2019-01-25T10:50:25.471Z,99.90
2019-01-25T10:52:54.012Z,99.90
2019-01-25T10:55:22.634Z,99.90
2019-01-25T10:57:51.332Z,99.90
2019-01-25T11:00:21.515Z,99.90
2019-01-25T11:02:57.698Z,99.90
2019-01-25T11:05:23.141Z,99.90
2019-01-25T11:07:51.787Z,99.90
2019-01-25T11:10:20.324Z,99.90
2019-01-25T11:12:49.031Z,99.90
2019-01-25T11:15:24.805Z,99.90
2019-01-25T11:17:53.441Z,99.90
2019-01-25T11:20:24.596Z,99.90
2019-01-25T11:22:54.063Z,99.90
2019-01-25T11:25:37.699Z,99.90
2019-01-25T11:28:06.315Z,99.90
2019-01-25T11:30:35.021Z,99.90
2019-01-25T11:33:03.695Z,99.90
2019-01-25T11:35:32.399Z,99.90
2019-01-25T11:38:00.934Z,99.90
2019-01-25T11:40:32.560Z,99.90
2019-01-25T11:43:08.121Z,99.90
2019-01-25T11:45:31.414Z,99.90
2019-01-25T11:48:00.227Z,99.90
2019-01-25T11:50:28.774Z,99.90
2019-01-25T11:52:57.405Z,99.90
2019-01-25T11:55:25.946Z,99.90
2019-01-25T11:57:54.518Z,99.90
2019-01-25T12:00:31.007Z,99.90
2019-01-25T12:02:59.701Z,99.90
2019-01-25T12:05:28.311Z,99.90
2019-01-25T12:07:56.943Z,99.90
2019-01-25T12:10:33.029Z,99.90
2019-01-25T12:13:01.644Z,99.90
2019-01-25T12:15:30.351Z,99.90
2019-01-25T12:17:58.894Z,99.60
2019-01-25T12:20:31.564Z,99.90
2019-01-25T12:23:00.642Z,99.90
2019-01-25T12:25:29.350Z,98.60
2019-01-25T12:27:58.235Z,99.90
2019-01-25T12:30:37.863Z,98.60
2019-01-25T12:33:06.529Z,97.30
2019-01-25T12:35:37.132Z,96.50
2019-01-25T12:38:05.916Z,97.90
2019-01-25T12:40:34.880Z,97.70
2019-01-25T12:43:03.666Z,95.20
2019-01-25T12:45:32.743Z,95.90
2019-01-25T12:48:01.441Z,94.70
2019-01-25T12:50:39.575Z,96.10
2019-01-25T12:53:10.176Z,95.40
2019-01-25T12:55:38.852Z,94.80
2019-01-25T12:58:07.664Z,94.00
2019-01-25T13:00:36.345Z,94.50
2019-01-25T13:03:05.534Z,94.00
2019-01-25T13:05:34.140Z,93.20
2019-01-25T13:08:02.746Z,92.80
2019-01-25T13:10:31.442Z,91.90
2019-01-25T13:13:00.051Z,91.30
2019-01-25T13:15:28.599Z,93.40
2019-01-25T13:17:57.207Z,91.50
2019-01-25T13:20:30.592Z,92.40
2019-01-25T13:22:59.258Z,91.00
2019-01-25T13:25:27.811Z,91.50
2019-01-25T13:27:56.348Z,90.70
2019-01-25T13:30:29.620Z,90.90
2019-01-25T13:32:58.241Z,89.50
2019-01-25T13:35:26.785Z,87.30
2019-01-25T13:37:55.342Z,82.90
2019-01-25T13:40:25.712Z,82.80
2019-01-25T13:42:54.403Z,81.90
2019-01-25T13:45:23.669Z,82.40
2019-01-25T13:47:52.465Z,83.30
2019-01-25T13:50:26.171Z,81.50
2019-01-25T13:52:54.795Z,82.40
2019-01-25T13:55:23.584Z,80.40
2019-01-25T13:57:52.184Z,80.50
2019-01-25T14:00:34.994Z,79.70
2019-01-25T14:03:03.654Z,78.40
2019-01-25T14:05:32.345Z,79.00
2019-01-25T14:08:00.886Z,79.60
2019-01-25T14:10:34.350Z,79.20
2019-01-25T14:13:03.033Z,81.50
2019-01-25T14:15:32.319Z,79.80
2019-01-25T14:18:00.987Z,77.20
2019-01-25T14:20:32.061Z,80.10
2019-01-25T14:23:00.663Z,78.60
2019-01-25T14:25:29.337Z,77.00
2019-01-25T14:27:57.959Z,78.50
2019-01-25T14:30:34.847Z,76.80
2019-01-25T14:33:03.844Z,76.40
2019-01-25T14:35:32.723Z,80.20
2019-01-25T14:38:01.340Z,80.30
2019-01-25T14:40:29.942Z,79.60
2019-01-25T14:42:58.571Z,78.20
2019-01-25T14:45:27.747Z,78.90
2019-01-25T14:47:56.459Z,78.50
2019-01-25T14:50:27.900Z,76.50
2019-01-25T14:52:56.565Z,77.80
2019-01-25T14:55:25.264Z,74.90
2019-01-25T14:57:53.943Z,75.50
2019-01-25T15:00:22.508Z,75.70
2019-01-25T15:02:51.049Z,77.10
2019-01-25T15:05:20.362Z,75.80
2019-01-25T15:07:49.025Z,76.10
2019-01-25T15:10:19.823Z,76.70
2019-01-25T15:12:49.199Z,77.50
2019-01-25T15:15:17.807Z,77.30
2019-01-25T15:17:46.439Z,78.80
2019-01-25T15:20:20.482Z,78.50
2019-01-25T15:22:49.189Z,78.50
2019-01-25T15:25:17.954Z,78.00
2019-01-25T15:27:46.594Z,77.60
2019-01-25T15:30:17.767Z,80.00
2019-01-25T15:32:46.517Z,78.40
2019-01-25T15:35:16.987Z,78.60
2019-01-25T15:37:45.621Z,77.70
2019-01-25T15:40:16.991Z,78.40
2019-01-25T15:42:45.681Z,79.10
2019-01-25T15:45:16.489Z,80.90
2019-01-25T15:47:45.403Z,80.40
2019-01-25T15:50:17.503Z,80.10
2019-01-25T15:52:46.187Z,80.70
2019-01-25T15:55:14.974Z,81.10
2019-01-25T15:57:43.510Z,81.20
2019-01-25T16:00:17.786Z,81.70
2019-01-25T16:02:46.395Z,81.60
2019-01-25T16:05:17.082Z,83.30
2019-01-25T16:07:45.687Z,83.00
2019-01-25T16:10:16.566Z,83.90
2019-01-25T16:12:45.127Z,84.20
2019-01-25T16:15:19.195Z,83.60
2019-01-25T16:17:48.091Z,83.90
2019-01-25T16:20:18.380Z,84.10
2019-01-25T16:22:49.091Z,84.40
2019-01-25T16:25:23.566Z,85.10
2019-01-25T16:27:52.198Z,86.10
2019-01-25T16:30:29.468Z,86.40
2019-01-25T16:32:58.031Z,86.60
2019-01-25T16:35:26.707Z,86.50
2019-01-25T16:37:55.584Z,86.70
2019-01-25T16:40:26.963Z,87.70
2019-01-25T16:42:55.675Z,87.40
2019-01-25T16:45:33.192Z,87.30
2019-01-25T16:48:01.793Z,87.80
2019-01-25T16:50:30.431Z,88.00
2019-01-25T16:52:59.044Z,88.50
2019-01-25T16:55:27.676Z,89.40
2019-01-25T16:57:56.282Z,89.70
2019-01-25T17:00:30.724Z,89.90
2019-01-25T17:02:59.319Z,90.30
2019-01-25T17:05:27.995Z,90.00
2019-01-25T17:07:56.699Z,89.70
2019-01-25T17:10:25.307Z,89.60
2019-01-25T17:12:53.951Z,89.30
2019-01-25T17:15:22.718Z,89.40
2019-01-25T17:17:51.340Z,89.50
2019-01-25T17:20:27.682Z,90.20
2019-01-25T17:22:56.414Z,90.30
2019-01-25T17:25:25.020Z,91.00
2019-01-25T17:27:54.127Z,91.30
2019-01-25T17:30:34.219Z,91.60
2019-01-25T17:33:02.934Z,92.20
2019-01-25T17:35:32.405Z,92.60
2019-01-25T17:38:01.592Z,92.70
2019-01-25T17:40:46.469Z,93.30
2019-01-25T17:43:11.703Z,93.50
2019-01-25T17:45:42.090Z,94.10
2019-01-25T17:48:11.273Z,94.80
2019-01-25T17:50:39.907Z,95.30
2019-01-25T17:53:08.522Z,95.10
2019-01-25T17:55:37.070Z,95.80
2019-01-25T17:58:08.113Z,96.20
2019-01-25T18:00:37.864Z,96.80
2019-01-25T18:03:06.617Z,97.10
2019-01-25T18:05:35.232Z,97.20
2019-01-25T18:08:03.958Z,97.20
2019-01-25T18:10:32.571Z,97.50
2019-01-25T18:13:01.139Z,97.50
2019-01-25T18:15:29.745Z,97.70
2019-01-25T18:17:58.381Z,98.80
2019-01-25T18:20:26.986Z,98.50
2019-01-25T18:22:55.627Z,99.10
2019-01-25T18:25:30.212Z,99.10
2019-01-25T18:28:01.723Z,99.60
2019-01-25T18:30:36.416Z,99.60
2019-01-25T18:33:05.023Z,99.80
2019-01-25T18:35:33.591Z,99.80
2019-01-25T18:38:02.132Z,99.90
2019-01-25T18:40:30.696Z,99.90
2019-01-25T18:42:59.373Z,99.90
2019-01-25T18:45:28.077Z,99.90
2019-01-25T18:47:56.615Z,99.90
2019-01-25T18:50:25.179Z,99.90
2019-01-25T18:52:53.729Z,99.90
2019-01-25T18:55:24.606Z,99.90
2019-01-25T18:57:53.252Z,99.90
2019-01-25T19:00:22.430Z,99.90
2019-01-25T19:02:51.058Z,99.90
2019-01-25T19:05:19.743Z,99.90
2019-01-25T19:07:48.447Z,99.90
2019-01-25T19:10:20.387Z,99.90
2019-01-25T19:12:48.971Z,99.90
2019-01-25T19:15:23.319Z,99.90
2019-01-25T19:17:52.023Z,99.90
2019-01-25T19:20:21.546Z,99.90
2019-01-25T19:22:50.319Z,99.90
2019-01-25T19:25:19.031Z,99.90
2019-01-25T19:27:47.708Z,99.90
2019-01-25T19:30:31.147Z,99.90
2019-01-25T19:32:59.820Z,99.90
2019-01-25T19:35:28.439Z,99.90
2019-01-25T19:37:57.426Z,99.90
2019-01-25T19:40:36.609Z,99.90
2019-01-25T19:43:07.500Z,99.90
2019-01-25T19:45:36.125Z,99.90
2019-01-25T19:48:05.606Z,99.90
2019-01-25T19:50:34.188Z,99.90
2019-01-25T19:53:02.794Z,99.90
2019-01-25T19:55:32.768Z,99.90
2019-01-25T19:58:03.710Z,99.90
2019-01-25T20:00:43.854Z,99.90
2019-01-25T20:03:14.101Z,99.90
2019-01-25T20:05:42.892Z,99.90
2019-01-25T20:08:11.591Z,99.90
2019-01-25T20:10:40.273Z,99.90
2019-01-25T20:13:10.066Z,99.90
2019-01-25T20:15:38.727Z,99.90
2019-01-25T20:18:07.326Z,99.90
2019-01-25T20:20:40.498Z,99.90
2019-01-25T20:23:09.281Z,99.90
2019-01-25T20:25:38.025Z,99.90
2019-01-25T20:28:08.601Z,99.90
2019-01-25T20:30:37.386Z,99.90
2019-01-25T20:33:06.263Z,99.90
2019-01-25T20:35:40.310Z,99.90
2019-01-25T20:38:09.128Z,99.90
2019-01-25T20:40:37.826Z,99.90
2019-01-25T20:43:06.507Z,99.90
2019-01-25T20:45:37.786Z,99.90
2019-01-25T20:48:06.759Z,99.90
2019-01-25T20:50:36.838Z,99.90
2019-01-25T20:53:07.143Z,99.90
2019-01-25T20:55:35.888Z,99.90
2019-01-25T20:58:05.196Z,99.90
2019-01-25T21:00:35.692Z,99.90
2019-01-25T21:03:05.468Z,99.90
2019-01-25T21:05:34.159Z,99.90
2019-01-25T21:08:02.793Z,99.90
2019-01-25T21:10:31.458Z,99.90
2019-01-25T21:13:00.140Z,99.90
2019-01-25T21:15:35.059Z,99.90
2019-01-25T21:17:59.775Z,99.90
2019-01-25T21:20:33.684Z,99.90
2019-01-25T21:23:02.353Z,99.90
2019-01-25T21:25:31.535Z,99.90
2019-01-25T21:28:00.239Z,99.90
2019-01-25T21:30:31.132Z,99.90
2019-01-25T21:32:59.803Z,99.90
2019-01-25T21:35:28.510Z,99.90
2019-01-25T21:37:57.184Z,99.90
2019-01-25T21:40:27.959Z,99.90
2019-01-25T21:42:58.157Z,99.90
2019-01-25T21:45:29.789Z,99.90
2019-01-25T21:47:58.463Z,99.90
2019-01-25T21:50:32.916Z,99.90
2019-01-25T21:53:01.527Z,99.90
2019-01-25T21:55:30.137Z,99.90
2019-01-25T21:58:05.514Z,99.90
2019-01-25T22:00:34.115Z,99.90
2019-01-25T22:03:02.812Z,99.90
2019-01-25T22:05:31.592Z,99.90
2019-01-25T22:08:00.199Z,99.90
2019-01-25T22:10:34.343Z,99.90
2019-01-25T22:13:03.027Z,99.90
2019-01-25T22:15:31.703Z,99.90
2019-01-25T22:18:00.410Z,99.90
2019-01-25T22:20:30.147Z,99.90
2019-01-25T22:22:58.763Z,99.90
2019-01-25T22:25:27.675Z,99.90
2019-01-25T22:27:56.644Z,99.90
2019-01-25T22:30:27.425Z,99.90
2019-01-25T22:32:56.230Z,99.90
2019-01-25T22:35:24.996Z,99.90
2019-01-25T22:37:53.470Z,99.90
2019-01-25T22:40:24.672Z,99.90
2019-01-25T22:42:53.355Z,99.90
2019-01-25T22:45:24.976Z,99.90
2019-01-25T22:47:53.618Z,99.90
2019-01-25T22:50:24.967Z,99.90
2019-01-25T22:52:53.586Z,99.90
2019-01-25T22:55:23.192Z,99.90
2019-01-25T22:57:52.074Z,99.90
2019-01-25T23:00:51.076Z,99.90
2019-01-25T23:03:28.618Z,99.90
2019-01-25T23:06:18.148Z,99.90
2019-01-25T23:08:46.686Z,99.90
2019-01-25T23:11:15.362Z,99.90
2019-01-25T23:13:44.023Z,99.90
2019-01-25T23:16:12.632Z,99.90
2019-01-25T23:18:41.172Z,99.90
2019-01-25T23:21:09.743Z,99.90
2019-01-25T23:23:38.334Z,99.90
2019-01-25T23:26:06.943Z,99.90
2019-01-25T23:28:35.586Z,99.90
2019-01-25T23:31:04.196Z,99.90
2019-01-25T23:33:32.795Z,99.90
2019-01-25T23:36:01.407Z,99.90
2019-01-25T23:38:29.994Z,99.90
2019-01-25T23:40:58.617Z,99.90
2019-01-25T23:43:27.239Z,99.90
2019-01-25T23:45:55.847Z,99.90
2019-01-25T23:48:24.387Z,99.90
2019-01-25T23:50:53.067Z,99.90
2019-01-25T23:53:21.616Z,99.90
2019-01-25T23:55:50.156Z,99.90
2019-01-25T23:58:18.728Z,99.90
